sensor_id;sensor_type;location;lat;lon;timestamp;pressure;altitude;pressure_sealevel;temperature;humidity
8049;BME280;20935;42.660;23.342;2023-02-14T00:00:08;96161.44;;;3.42;88.56
8049;BME280;20935;42.660;23.342;2023-02-14T00:02:54;96156.13;;;3.34;88.55
8049;BME280;20935;42.660;23.342;2023-02-14T00:05:40;96158.44;;;3.26;88.97
8049;BME280;20935;42.660;23.342;2023-02-14T00:08:25;96159.56;;;3.34;89.17
8049;BME280;20935;42.660;23.342;2023-02-14T00:11:12;96160.03;;;3.36;88.57
8049;BME280;20935;42.660;23.342;2023-02-14T00:13:58;96154.56;;;3.33;89.30
8049;BME280;20935;42.660;23.342;2023-02-14T00:17:01;96162.38;;;3.29;89.62
8049;BME280;20935;42.660;23.342;2023-02-14T00:19:46;96169.19;;;3.39;89.00
8049;BME280;20935;42.660;23.342;2023-02-14T00:22:32;96148.34;;;3.28;90.02
8049;BME280;20935;42.660;23.342;2023-02-14T00:25:18;96156.59;;;3.44;89.17
8049;BME280;20935;42.660;23.342;2023-02-14T00:28:06;96171.84;;;3.56;87.72
8049;BME280;20935;42.660;23.342;2023-02-14T00:30:51;96149.59;;;3.48;88.30
8049;BME280;20935;42.660;23.342;2023-02-14T00:33:37;96158.47;;;3.52;88.43
8049;BME280;20935;42.660;23.342;2023-02-14T00:36:22;96145.50;;;3.68;87.95
8049;BME280;20935;42.660;23.342;2023-02-14T00:39:10;96159.25;;;3.53;88.42
8049;BME280;20935;42.660;23.342;2023-02-14T00:41:55;96162.50;;;3.58;88.89
8049;BME280;20935;42.660;23.342;2023-02-14T00:44:42;96151.44;;;3.73;87.96
8049;BME280;20935;42.660;23.342;2023-02-14T00:47:27;96148.66;;;3.44;89.61
8049;BME280;20935;42.660;23.342;2023-02-14T00:50:16;96146.16;;;3.48;89.94
8049;BME280;20935;42.660;23.342;2023-02-14T00:53:01;96146.94;;;3.57;89.01
8049;BME280;20935;42.660;23.342;2023-02-14T00:55:46;96140.22;;;3.51;89.28
8049;BME280;20935;42.660;23.342;2023-02-14T00:58:32;96136.81;;;3.42;89.97
8049;BME280;20935;42.660;23.342;2023-02-14T01:01:19;96131.84;;;3.49;89.80
8049;BME280;20935;42.660;23.342;2023-02-14T01:04:05;96124.19;;;3.47;89.48
8049;BME280;20935;42.660;23.342;2023-02-14T01:06:50;96117.66;;;3.45;89.89
8049;BME280;20935;42.660;23.342;2023-02-14T01:09:36;96121.38;;;3.44;89.76
8049;BME280;20935;42.660;23.342;2023-02-14T01:12:21;96122.31;;;3.48;89.53
8049;BME280;20935;42.660;23.342;2023-02-14T01:15:08;96124.97;;;3.30;90.75
8049;BME280;20935;42.660;23.342;2023-02-14T01:17:55;96114.53;;;3.43;90.08
8049;BME280;20935;42.660;23.342;2023-02-14T01:20:40;96119.22;;;3.37;90.57
8049;BME280;20935;42.660;23.342;2023-02-14T01:23:26;96117.06;;;3.22;91.08
8049;BME280;20935;42.660;23.342;2023-02-14T01:26:11;96112.06;;;3.38;90.16
8049;BME280;20935;42.660;23.342;2023-02-14T01:28:57;96111.59;;;3.36;90.58
8049;BME280;20935;42.660;23.342;2023-02-14T01:31:43;96106.63;;;3.34;90.25
8049;BME280;20935;42.660;23.342;2023-02-14T01:34:32;96107.22;;;3.48;89.41
8049;BME280;20935;42.660;23.342;2023-02-14T01:37:17;96099.91;;;3.28;90.06
8049;BME280;20935;42.660;23.342;2023-02-14T01:40:03;96097.91;;;3.34;90.67
8049;BME280;20935;42.660;23.342;2023-02-14T01:42:51;96087.31;;;3.34;90.02
8049;BME280;20935;42.660;23.342;2023-02-14T01:45:37;96093.06;;;3.27;90.85
8049;BME280;20935;42.660;23.342;2023-02-14T01:48:23;96083.88;;;3.16;90.83
8049;BME280;20935;42.660;23.342;2023-02-14T01:51:10;96066.44;;;3.23;91.46
8049;BME280;20935;42.660;23.342;2023-02-14T01:53:57;96070.50;;;3.29;90.00
8049;BME280;20935;42.660;23.342;2023-02-14T01:56:46;96083.25;;;3.27;90.13
8049;BME280;20935;42.660;23.342;2023-02-14T01:59:35;96075.31;;;3.36;89.93
8049;BME280;20935;42.660;23.342;2023-02-14T02:02:22;96075.59;;;3.35;88.80
8049;BME280;20935;42.660;23.342;2023-02-14T02:05:11;96080.59;;;3.27;89.96
8049;BME280;20935;42.660;23.342;2023-02-14T02:07:59;96075.66;;;3.17;90.38
8049;BME280;20935;42.660;23.342;2023-02-14T02:10:45;96071.09;;;3.26;89.82
8049;BME280;20935;42.660;23.342;2023-02-14T02:13:31;96070.34;;;3.26;90.41
8049;BME280;20935;42.660;23.342;2023-02-14T02:16:28;96067.66;;;3.35;89.70
8049;BME280;20935;42.660;23.342;2023-02-14T02:23:13;96076.72;;;3.25;90.97
8049;BME280;20935;42.660;23.342;2023-02-14T02:26:31;96063.94;;;3.36;89.88
8049;BME280;20935;42.660;23.342;2023-02-14T02:29:55;96062.41;;;3.17;90.54
8049;BME280;20935;42.660;23.342;2023-02-14T02:39:45;96048.84;;;3.19;89.96
8049;BME280;20935;42.660;23.342;2023-02-14T02:42:44;96032.81;;;3.24;90.05
8049;BME280;20935;42.660;23.342;2023-02-14T02:45:45;96037.66;;;3.22;90.15
8049;BME280;20935;42.660;23.342;2023-02-14T02:48:57;96024.38;;;3.30;90.02
8049;BME280;20935;42.660;23.342;2023-02-14T02:51:49;96025.50;;;3.29;89.00
8049;BME280;20935;42.660;23.342;2023-02-14T02:54:59;96023.34;;;3.14;90.17
8049;BME280;20935;42.660;23.342;2023-02-14T02:57:51;96031.75;;;3.08;90.90
8049;BME280;20935;42.660;23.342;2023-02-14T03:00:38;96028.66;;;3.14;90.30
8049;BME280;20935;42.660;23.342;2023-02-14T03:03:24;96031.59;;;3.13;90.45
8049;BME280;20935;42.660;23.342;2023-02-14T03:06:29;96031.88;;;3.20;90.48
8049;BME280;20935;42.660;23.342;2023-02-14T03:09:52;96042.03;;;3.18;90.30
8049;BME280;20935;42.660;23.342;2023-02-14T03:16:09;96030.66;;;3.26;90.44
8049;BME280;20935;42.660;23.342;2023-02-14T03:19:24;96033.28;;;3.26;89.66
8049;BME280;20935;42.660;23.342;2023-02-14T03:22:17;96030.16;;;3.24;90.02
8049;BME280;20935;42.660;23.342;2023-02-14T03:25:10;96027.38;;;3.29;90.04
8049;BME280;20935;42.660;23.342;2023-02-14T03:28:01;96022.22;;;3.33;89.46
8049;BME280;20935;42.660;23.342;2023-02-14T03:30:54;96011.47;;;3.29;89.28
8049;BME280;20935;42.660;23.342;2023-02-14T03:33:46;96014.91;;;3.21;89.56
8049;BME280;20935;42.660;23.342;2023-02-14T03:36:39;96011.81;;;3.19;89.21
8049;BME280;20935;42.660;23.342;2023-02-14T03:39:28;96015.09;;;3.07;90.27
8049;BME280;20935;42.660;23.342;2023-02-14T03:42:20;96016.81;;;2.95;90.86
8049;BME280;20935;42.660;23.342;2023-02-14T03:45:09;96010.56;;;3.08;90.42
8049;BME280;20935;42.660;23.342;2023-02-14T03:48:00;96018.50;;;3.16;89.58
8049;BME280;20935;42.660;23.342;2023-02-14T03:50:48;96004.19;;;3.17;89.16
8049;BME280;20935;42.660;23.342;2023-02-14T03:53:41;96006.22;;;2.95;90.63
8049;BME280;20935;42.660;23.342;2023-02-14T03:56:31;96000.19;;;2.94;91.04
8049;BME280;20935;42.660;23.342;2023-02-14T03:59:22;95995.69;;;2.86;91.14
8049;BME280;20935;42.660;23.342;2023-02-14T04:02:10;95982.44;;;2.86;91.39
8049;BME280;20935;42.660;23.342;2023-02-14T04:04:58;95980.09;;;2.93;90.73
8049;BME280;20935;42.660;23.342;2023-02-14T04:07:48;95985.56;;;2.79;91.24
8049;BME280;20935;42.660;23.342;2023-02-14T04:10:36;95971.22;;;2.98;90.72
8049;BME280;20935;42.660;23.342;2023-02-14T04:13:25;95983.19;;;2.95;90.75
8049;BME280;20935;42.660;23.342;2023-02-14T04:16:12;95976.38;;;2.94;90.29
8049;BME280;20935;42.660;23.342;2023-02-14T04:18:57;95987.41;;;2.96;90.28
8049;BME280;20935;42.660;23.342;2023-02-14T04:22:00;95990.69;;;2.93;90.14
8049;BME280;20935;42.660;23.342;2023-02-14T04:24:46;95985.97;;;3.07;89.11
8049;BME280;20935;42.660;23.342;2023-02-14T04:27:31;95993.91;;;3.16;87.89
8049;BME280;20935;42.660;23.342;2023-02-14T04:30:17;95990.84;;;2.88;89.81
8049;BME280;20935;42.660;23.342;2023-02-14T04:33:05;95981.19;;;3.01;88.61
8049;BME280;20935;42.660;23.342;2023-02-14T04:35:51;95984.59;;;3.01;88.73
8049;BME280;20935;42.660;23.342;2023-02-14T04:38:40;95984.59;;;3.18;88.05
8049;BME280;20935;42.660;23.342;2023-02-14T04:41:25;95979.47;;;2.96;88.68
8049;BME280;20935;42.660;23.342;2023-02-14T04:44:10;95971.22;;;3.06;88.70
8049;BME280;20935;42.660;23.342;2023-02-14T04:46:56;95968.25;;;2.99;87.96
8049;BME280;20935;42.660;23.342;2023-02-14T04:49:43;95968.72;;;3.01;88.08
8049;BME280;20935;42.660;23.342;2023-02-14T04:52:28;95955.03;;;2.99;88.77
8049;BME280;20935;42.660;23.342;2023-02-14T04:55:13;95968.09;;;3.04;87.93
8049;BME280;20935;42.660;23.342;2023-02-14T04:57:59;95956.28;;;2.93;88.53
8049;BME280;20935;42.660;23.342;2023-02-14T05:00:45;95959.25;;;2.92;88.65
8049;BME280;20935;42.660;23.342;2023-02-14T05:03:31;95954.72;;;2.92;88.45
8049;BME280;20935;42.660;23.342;2023-02-14T05:06:17;95968.56;;;3.06;87.44
8049;BME280;20935;42.660;23.342;2023-02-14T05:09:03;95968.75;;;2.93;88.45
8049;BME280;20935;42.660;23.342;2023-02-14T05:11:48;95959.53;;;2.99;87.86
8049;BME280;20935;42.660;23.342;2023-02-14T05:14:33;95965.47;;;2.87;88.39
8049;BME280;20935;42.660;23.342;2023-02-14T05:17:19;95965.16;;;2.97;88.05
8049;BME280;20935;42.660;23.342;2023-02-14T05:20:06;95962.97;;;2.99;87.92
8049;BME280;20935;42.660;23.342;2023-02-14T05:22:53;95958.56;;;3.20;86.07
8049;BME280;20935;42.660;23.342;2023-02-14T05:25:38;95952.34;;;3.16;86.11
8049;BME280;20935;42.660;23.342;2023-02-14T05:28:23;95971.97;;;3.07;86.83
8049;BME280;20935;42.660;23.342;2023-02-14T05:31:09;95958.56;;;3.20;85.43
8049;BME280;20935;42.660;23.342;2023-02-14T05:33:54;95958.72;;;3.15;86.21
8049;BME280;20935;42.660;23.342;2023-02-14T05:36:40;95954.41;;;3.02;86.95
8049;BME280;20935;42.660;23.342;2023-02-14T05:39:29;95955.66;;;3.05;87.01
8049;BME280;20935;42.660;23.342;2023-02-14T05:42:14;95948.63;;;3.09;86.96
8049;BME280;20935;42.660;23.342;2023-02-14T05:45:00;95949.69;;;3.16;86.47
8049;BME280;20935;42.660;23.342;2023-02-14T05:47:46;95949.56;;;3.13;86.59
8049;BME280;20935;42.660;23.342;2023-02-14T05:50:32;95949.81;;;3.28;85.88
8049;BME280;20935;42.660;23.342;2023-02-14T05:53:18;95946.25;;;3.24;85.63
8049;BME280;20935;42.660;23.342;2023-02-14T05:56:05;95951.09;;;3.22;85.66
8049;BME280;20935;42.660;23.342;2023-02-14T05:58:50;95946.88;;;3.21;86.01
8049;BME280;20935;42.660;23.342;2023-02-14T06:01:35;95950.75;;;3.33;85.74
8049;BME280;20935;42.660;23.342;2023-02-14T06:04:21;95955.94;;;3.58;84.14
8049;BME280;20935;42.660;23.342;2023-02-14T06:07:07;95948.31;;;3.57;83.81
8049;BME280;20935;42.660;23.342;2023-02-14T06:09:52;95951.81;;;3.78;82.11
8049;BME280;20935;42.660;23.342;2023-02-14T06:12:41;95956.56;;;3.55;83.56
8049;BME280;20935;42.660;23.342;2023-02-14T06:15:30;95966.09;;;3.48;84.44
8049;BME280;20935;42.660;23.342;2023-02-14T06:18:16;95965.00;;;3.49;84.92
8049;BME280;20935;42.660;23.342;2023-02-14T06:21:01;95965.38;;;3.76;83.24
8049;BME280;20935;42.660;23.342;2023-02-14T06:23:50;95957.94;;;3.91;81.88
8049;BME280;20935;42.660;23.342;2023-02-14T06:26:35;95973.38;;;3.97;80.87
8049;BME280;20935;42.660;23.342;2023-02-14T06:29:22;95972.81;;;3.83;81.05
8049;BME280;20935;42.660;23.342;2023-02-14T06:32:08;95969.66;;;3.90;80.92
8049;BME280;20935;42.660;23.342;2023-02-14T06:34:53;95966.09;;;3.86;81.27
8049;BME280;20935;42.660;23.342;2023-02-14T06:37:39;95960.81;;;3.86;82.27
8049;BME280;20935;42.660;23.342;2023-02-14T06:40:28;95961.91;;;3.85;82.26
8049;BME280;20935;42.660;23.342;2023-02-14T06:43:13;95959.75;;;3.78;82.74
8049;BME280;20935;42.660;23.342;2023-02-14T06:46:00;95962.00;;;3.97;81.23
8049;BME280;20935;42.660;23.342;2023-02-14T06:48:48;95967.31;;;3.88;82.05
8049;BME280;20935;42.660;23.342;2023-02-14T06:51:34;95963.16;;;4.08;80.86
8049;BME280;20935;42.660;23.342;2023-02-14T06:54:19;95950.94;;;4.15;80.36
8049;BME280;20935;42.660;23.342;2023-02-14T06:57:07;95956.63;;;4.26;80.56
8049;BME280;20935;42.660;23.342;2023-02-14T06:59:53;95956.34;;;4.28;79.48
8049;BME280;20935;42.660;23.342;2023-02-14T07:02:40;95958.19;;;4.27;80.22
8049;BME280;20935;42.660;23.342;2023-02-14T07:05:25;95963.91;;;4.17;81.50
8049;BME280;20935;42.660;23.342;2023-02-14T07:08:11;95936.59;;;3.96;83.27
8049;BME280;20935;42.660;23.342;2023-02-14T07:11:00;95932.19;;;4.00;83.70
8049;BME280;20935;42.660;23.342;2023-02-14T07:13:45;95926.44;;;4.18;83.34
8049;BME280;20935;42.660;23.342;2023-02-14T07:16:30;95938.59;;;4.19;82.80
8049;BME280;20935;42.660;23.342;2023-02-14T07:19:18;95945.13;;;4.22;83.65
8049;BME280;20935;42.660;23.342;2023-02-14T07:22:03;95951.34;;;4.26;84.52
8049;BME280;20935;42.660;23.342;2023-02-14T07:24:48;95959.38;;;4.17;85.54
8049;BME280;20935;42.660;23.342;2023-02-14T07:27:34;95944.44;;;4.13;86.93
8049;BME280;20935;42.660;23.342;2023-02-14T07:30:19;95967.19;;;4.14;87.48
8049;BME280;20935;42.660;23.342;2023-02-14T07:33:04;95949.91;;;4.08;88.87
8049;BME280;20935;42.660;23.342;2023-02-14T07:35:51;95963.13;;;4.16;89.90
8049;BME280;20935;42.660;23.342;2023-02-14T07:38:37;95960.81;;;4.06;92.23
8049;BME280;20935;42.660;23.342;2023-02-14T07:41:22;95956.69;;;3.97;94.98
8049;BME280;20935;42.660;23.342;2023-02-14T07:44:07;95953.81;;;3.81;95.70
8049;BME280;20935;42.660;23.342;2023-02-14T07:46:53;95948.84;;;3.71;97.36
8049;BME280;20935;42.660;23.342;2023-02-14T07:49:39;95957.28;;;3.73;98.66
8049;BME280;20935;42.660;23.342;2023-02-14T07:52:25;95962.53;;;3.82;99.76
8049;BME280;20935;42.660;23.342;2023-02-14T07:55:10;95960.47;;;3.87;99.59
8049;BME280;20935;42.660;23.342;2023-02-14T07:57:56;95971.44;;;3.77;100.00
8049;BME280;20935;42.660;23.342;2023-02-14T08:00:41;95962.88;;;3.71;100.00
8049;BME280;20935;42.660;23.342;2023-02-14T08:03:27;95995.69;;;3.88;100.00
8049;BME280;20935;42.660;23.342;2023-02-14T08:06:12;95974.84;;;3.86;100.00
8049;BME280;20935;42.660;23.342;2023-02-14T08:08:59;95973.91;;;3.82;100.00
8049;BME280;20935;42.660;23.342;2023-02-14T08:11:45;95981.22;;;3.85;100.00
8049;BME280;20935;42.660;23.342;2023-02-14T08:14:50;95999.78;;;3.85;100.00
8049;BME280;20935;42.660;23.342;2023-02-14T08:17:36;95983.88;;;3.85;100.00
8049;BME280;20935;42.660;23.342;2023-02-14T08:20:21;95996.06;;;4.07;100.00
8049;BME280;20935;42.660;23.342;2023-02-14T08:23:07;96003.06;;;3.82;100.00
8049;BME280;20935;42.660;23.342;2023-02-14T08:25:53;95988.41;;;3.76;100.00
8049;BME280;20935;42.660;23.342;2023-02-14T08:28:39;96005.22;;;3.80;100.00
8049;BME280;20935;42.660;23.342;2023-02-14T08:31:26;96008.63;;;3.89;100.00
8049;BME280;20935;42.660;23.342;2023-02-14T08:34:12;95990.16;;;3.72;100.00
8049;BME280;20935;42.660;23.342;2023-02-14T08:36:58;95978.97;;;3.96;100.00
8049;BME280;20935;42.660;23.342;2023-02-14T08:39:43;95981.06;;;4.11;99.96
8049;BME280;20935;42.660;23.342;2023-02-14T08:42:30;95981.84;;;4.11;100.00
8049;BME280;20935;42.660;23.342;2023-02-14T08:45:16;95996.97;;;4.11;100.00
8049;BME280;20935;42.660;23.342;2023-02-14T08:48:03;96018.38;;;4.06;100.00
8049;BME280;20935;42.660;23.342;2023-02-14T08:50:48;96000.88;;;3.75;100.00
8049;BME280;20935;42.660;23.342;2023-02-14T08:53:34;95992.91;;;3.84;100.00
8049;BME280;20935;42.660;23.342;2023-02-14T08:56:19;95992.81;;;3.72;100.00
8049;BME280;20935;42.660;23.342;2023-02-14T08:59:06;96007.88;;;3.80;100.00
8049;BME280;20935;42.660;23.342;2023-02-14T09:01:52;95991.19;;;3.88;100.00
8049;BME280;20935;42.660;23.342;2023-02-14T09:04:38;96015.31;;;3.87;100.00
8049;BME280;20935;42.660;23.342;2023-02-14T09:07:23;95998.38;;;3.79;100.00
8049;BME280;20935;42.660;23.342;2023-02-14T09:10:10;95987.88;;;3.62;100.00
8049;BME280;20935;42.660;23.342;2023-02-14T09:12:55;95989.72;;;3.70;100.00
8049;BME280;20935;42.660;23.342;2023-02-14T09:15:45;95970.50;;;3.82;100.00
8049;BME280;20935;42.660;23.342;2023-02-14T09:18:30;95985.22;;;3.91;100.00
8049;BME280;20935;42.660;23.342;2023-02-14T09:21:20;95970.50;;;3.82;100.00
8049;BME280;20935;42.660;23.342;2023-02-14T09:24:06;95971.56;;;3.81;100.00
8049;BME280;20935;42.660;23.342;2023-02-14T09:26:52;95966.38;;;3.93;100.00
8049;BME280;20935;42.660;23.342;2023-02-14T09:29:37;95975.06;;;4.02;100.00
8049;BME280;20935;42.660;23.342;2023-02-14T09:32:24;95973.38;;;3.97;100.00
8049;BME280;20935;42.660;23.342;2023-02-14T09:35:10;95974.22;;;3.81;100.00
8049;BME280;20935;42.660;23.342;2023-02-14T09:38:13;95984.44;;;3.91;100.00
8049;BME280;20935;42.660;23.342;2023-02-14T09:40:58;95966.81;;;3.95;100.00
8049;BME280;20935;42.660;23.342;2023-02-14T09:43:58;95963.50;;;3.77;100.00
8049;BME280;20935;42.660;23.342;2023-02-14T09:46:47;95975.41;;;3.92;100.00
8049;BME280;20935;42.660;23.342;2023-02-14T09:49:37;95970.59;;;4.14;100.00
8049;BME280;20935;42.660;23.342;2023-02-14T09:52:27;95957.09;;;4.07;100.00
8049;BME280;20935;42.660;23.342;2023-02-14T09:55:15;95960.66;;;4.11;100.00
8049;BME280;20935;42.660;23.342;2023-02-14T09:58:06;95967.94;;;3.94;100.00
8049;BME280;20935;42.660;23.342;2023-02-14T10:00:58;95955.63;;;3.89;100.00
8049;BME280;20935;42.660;23.342;2023-02-14T10:04:04;95944.91;;;3.86;100.00
8049;BME280;20935;42.660;23.342;2023-02-14T10:06:56;95991.91;;;3.97;100.00
8049;BME280;20935;42.660;23.342;2023-02-14T10:09:55;95948.97;;;3.83;100.00
8049;BME280;20935;42.660;23.342;2023-02-14T10:12:49;95946.03;;;3.76;100.00
8049;BME280;20935;42.660;23.342;2023-02-14T10:15:38;95943.75;;;3.95;100.00
8049;BME280;20935;42.660;23.342;2023-02-14T10:18:27;95960.72;;;3.73;100.00
8049;BME280;20935;42.660;23.342;2023-02-14T10:21:20;95935.19;;;3.69;100.00
8049;BME280;20935;42.660;23.342;2023-02-14T10:24:13;95935.53;;;3.59;100.00
8049;BME280;20935;42.660;23.342;2023-02-14T10:27:05;95938.25;;;3.71;100.00
8049;BME280;20935;42.660;23.342;2023-02-14T10:29:55;95936.88;;;3.94;100.00
8049;BME280;20935;42.660;23.342;2023-02-14T10:32:44;95946.22;;;4.00;100.00
8049;BME280;20935;42.660;23.342;2023-02-14T10:35:36;95933.94;;;3.96;100.00
8049;BME280;20935;42.660;23.342;2023-02-14T10:38:34;95927.66;;;3.71;100.00
8049;BME280;20935;42.660;23.342;2023-02-14T10:41:31;95933.66;;;3.89;100.00
8049;BME280;20935;42.660;23.342;2023-02-14T10:44:28;95936.88;;;3.94;100.00
8049;BME280;20935;42.660;23.342;2023-02-14T10:47:32;95929.84;;;3.98;100.00
8049;BME280;20935;42.660;23.342;2023-02-14T10:50:27;95939.22;;;3.96;99.11
8049;BME280;20935;42.660;23.342;2023-02-14T10:53:17;95925.59;;;3.85;99.94
8049;BME280;20935;42.660;23.342;2023-02-14T10:56:08;95943.94;;;3.90;100.00
8049;BME280;20935;42.660;23.342;2023-02-14T10:58:58;95919.81;;;3.83;100.00
8049;BME280;20935;42.660;23.342;2023-02-14T11:01:48;95951.44;;;3.88;100.00
8049;BME280;20935;42.660;23.342;2023-02-14T11:04:35;95922.66;;;3.78;100.00
8049;BME280;20935;42.660;23.342;2023-02-14T11:07:20;95926.50;;;3.89;100.00
8049;BME280;20935;42.660;23.342;2023-02-14T11:10:09;95924.81;;;3.85;100.00
8049;BME280;20935;42.660;23.342;2023-02-14T11:12:56;95905.50;;;4.05;98.78
8049;BME280;20935;42.660;23.342;2023-02-14T11:15:45;95925.25;;;3.87;98.89
8049;BME280;20935;42.660;23.342;2023-02-14T11:18:34;95928.50;;;3.92;99.20
8049;BME280;20935;42.660;23.342;2023-02-14T11:21:36;95917.78;;;3.89;98.21
8049;BME280;20935;42.660;23.342;2023-02-14T11:24:27;95922.47;;;3.83;98.33
8049;BME280;20935;42.660;23.342;2023-02-14T11:27:16;95923.84;;;3.89;97.35
8049;BME280;20935;42.660;23.342;2023-02-14T11:30:11;95910.78;;;3.84;96.88
8049;BME280;20935;42.660;23.342;2023-02-14T11:33:04;95900.75;;;3.69;97.20
8049;BME280;20935;42.660;23.342;2023-02-14T11:35:51;95883.97;;;3.86;96.38
8049;BME280;20935;42.660;23.342;2023-02-14T11:38:38;95907.44;;;3.96;95.19
8049;BME280;20935;42.660;23.342;2023-02-14T11:41:24;95899.44;;;4.04;94.77
8049;BME280;20935;42.660;23.342;2023-02-14T11:44:13;95900.97;;;4.26;92.63
8049;BME280;20935;42.660;23.342;2023-02-14T11:47:21;95898.84;;;4.40;90.90
8049;BME280;20935;42.660;23.342;2023-02-14T11:50:20;95890.94;;;4.11;90.57
8049;BME280;20935;42.660;23.342;2023-02-14T11:53:09;95894.13;;;4.04;89.45
8049;BME280;20935;42.660;23.342;2023-02-14T11:55:59;95882.94;;;4.19;88.59
8049;BME280;20935;42.660;23.342;2023-02-14T11:58:48;95869.31;;;4.09;88.77
8049;BME280;20935;42.660;23.342;2023-02-14T12:01:36;95874.13;;;4.28;87.11
8049;BME280;20935;42.660;23.342;2023-02-14T12:04:29;95874.25;;;4.31;86.93
8049;BME280;20935;42.660;23.342;2023-02-14T12:07:20;95859.53;;;4.21;87.92
8049;BME280;20935;42.660;23.342;2023-02-14T12:10:19;95856.91;;;4.21;87.85
8049;BME280;20935;42.660;23.342;2023-02-14T12:13:22;95863.34;;;4.33;87.38
8049;BME280;20935;42.660;23.342;2023-02-14T12:16:19;95881.19;;;4.44;86.48
8049;BME280;20935;42.660;23.342;2023-02-14T12:19:10;95852.91;;;4.48;86.38
8049;BME280;20935;42.660;23.342;2023-02-14T12:22:00;95862.75;;;4.48;86.27
8049;BME280;20935;42.660;23.342;2023-02-14T12:24:54;95852.28;;;4.31;86.49
8049;BME280;20935;42.660;23.342;2023-02-14T12:27:46;95863.94;;;4.50;86.23
8049;BME280;20935;42.660;23.342;2023-02-14T12:30:34;95857.75;;;4.79;85.00
8049;BME280;20935;42.660;23.342;2023-02-14T12:33:22;95844.38;;;4.76;84.32
8049;BME280;20935;42.660;23.342;2023-02-14T12:36:17;95854.09;;;4.71;84.87
8049;BME280;20935;42.660;23.342;2023-02-14T12:39:12;95851.75;;;4.70;84.89
8049;BME280;20935;42.660;23.342;2023-02-14T12:42:09;95843.66;;;4.66;86.19
8049;BME280;20935;42.660;23.342;2023-02-14T12:45:04;95840.47;;;4.61;85.16
8049;BME280;20935;42.660;23.342;2023-02-14T12:48:01;95839.06;;;4.76;85.05
8049;BME280;20935;42.660;23.342;2023-02-14T12:50:53;95844.38;;;4.76;84.39
8049;BME280;20935;42.660;23.342;2023-02-14T12:54:01;95849.09;;;4.70;86.20
8049;BME280;20935;42.660;23.342;2023-02-14T12:56:57;95851.22;;;4.77;85.35
8049;BME280;20935;42.660;23.342;2023-02-14T12:59:56;95874.66;;;4.74;84.66
8049;BME280;20935;42.660;23.342;2023-02-14T13:02:58;95852.44;;;4.79;86.05
8049;BME280;20935;42.660;23.342;2023-02-14T13:05:59;95848.88;;;4.75;86.50
8049;BME280;20935;42.660;23.342;2023-02-14T13:09:00;95847.22;;;4.70;86.53
8049;BME280;20935;42.660;23.342;2023-02-14T13:11:58;95852.66;;;4.86;85.87
8049;BME280;20935;42.660;23.342;2023-02-14T13:14:58;95845.13;;;4.76;86.67
8049;BME280;20935;42.660;23.342;2023-02-14T13:17:49;95840.72;;;4.80;87.03
8049;BME280;20935;42.660;23.342;2023-02-14T13:20:43;95837.66;;;5.02;86.03
8049;BME280;20935;42.660;23.342;2023-02-14T13:23:34;95823.19;;;5.12;85.35
8049;BME280;20935;42.660;23.342;2023-02-14T13:26:28;95821.28;;;4.88;86.97
8049;BME280;20935;42.660;23.342;2023-02-14T13:29:18;95820.50;;;4.88;87.88
8049;BME280;20935;42.660;23.342;2023-02-14T13:32:12;95839.13;;;4.67;89.03
8049;BME280;20935;42.660;23.342;2023-02-14T13:35:02;95830.53;;;4.70;89.99
8049;BME280;20935;42.660;23.342;2023-02-14T13:37:52;95841.91;;;4.70;89.14
8049;BME280;20935;42.660;23.342;2023-02-14T13:40:39;95826.66;;;4.67;89.90
8049;BME280;20935;42.660;23.342;2023-02-14T13:43:44;95824.97;;;4.63;90.27
8049;BME280;20935;42.660;23.342;2023-02-14T13:46:48;95830.66;;;4.73;90.51
8049;BME280;20935;42.660;23.342;2023-02-14T13:49:37;95821.28;;;4.88;89.15
8049;BME280;20935;42.660;23.342;2023-02-14T13:52:41;95830.22;;;4.84;89.73
8049;BME280;20935;42.660;23.342;2023-02-14T13:55:32;95835.78;;;4.58;91.25
8049;BME280;20935;42.660;23.342;2023-02-14T13:58:19;95837.75;;;4.82;90.23
8049;BME280;20935;42.660;23.342;2023-02-14T14:01:38;95836.19;;;4.81;88.51
8049;BME280;20935;42.660;23.342;2023-02-14T14:04:36;95845.25;;;4.80;89.59
8049;BME280;20935;42.660;23.342;2023-02-14T14:07:24;95837.94;;;4.64;90.59
8049;BME280;20935;42.660;23.342;2023-02-14T14:10:13;95838.97;;;4.84;90.47
8049;BME280;20935;42.660;23.342;2023-02-14T14:16:37;95845.53;;;4.66;89.80
8049;BME280;20935;42.660;23.342;2023-02-14T14:19:37;95845.00;;;4.60;91.31
8049;BME280;20935;42.660;23.342;2023-02-14T14:22:25;95856.59;;;4.35;92.51
8049;BME280;20935;42.660;23.342;2023-02-14T14:25:11;95851.22;;;4.44;93.23
8049;BME280;20935;42.660;23.342;2023-02-14T14:27:56;95833.47;;;4.56;91.72
8049;BME280;20935;42.660;23.342;2023-02-14T14:30:43;95836.94;;;4.69;91.61
8049;BME280;20935;42.660;23.342;2023-02-14T14:33:31;95827.59;;;4.51;92.04
8049;BME280;20935;42.660;23.342;2023-02-14T14:36:22;95822.13;;;4.35;93.67
8049;BME280;20935;42.660;23.342;2023-02-14T14:39:08;95809.78;;;4.39;94.32
8049;BME280;20935;42.660;23.342;2023-02-14T14:41:55;95807.50;;;4.50;93.72
8049;BME280;20935;42.660;23.342;2023-02-14T14:44:45;95804.75;;;4.58;92.88
8049;BME280;20935;42.660;23.342;2023-02-14T14:47:35;95819.44;;;4.56;92.86
8049;BME280;20935;42.660;23.342;2023-02-14T14:50:23;95807.72;;;4.45;93.41
8049;BME280;20935;42.660;23.342;2023-02-14T14:53:20;95820.22;;;4.56;92.96
8049;BME280;20935;42.660;23.342;2023-02-14T14:56:09;95824.13;;;4.38;93.71
8049;BME280;20935;42.660;23.342;2023-02-14T15:01:56;95815.81;;;4.28;95.25
8049;BME280;20935;42.660;23.342;2023-02-14T15:04:41;95827.25;;;4.40;94.37
8049;BME280;20935;42.660;23.342;2023-02-14T15:07:32;95828.28;;;4.60;93.55
8049;BME280;20935;42.660;23.342;2023-02-14T15:10:24;95825.69;;;4.39;93.79
8049;BME280;20935;42.660;23.342;2023-02-14T15:13:11;95828.03;;;4.41;94.23
8049;BME280;20935;42.660;23.342;2023-02-14T15:16:17;95830.09;;;4.35;94.20
8049;BME280;20935;42.660;23.342;2023-02-14T15:19:07;95834.84;;;4.30;94.71
8049;BME280;20935;42.660;23.342;2023-02-14T15:21:53;95835.16;;;4.07;95.43
8049;BME280;20935;42.660;23.342;2023-02-14T15:24:39;95836.06;;;4.32;95.06
8049;BME280;20935;42.660;23.342;2023-02-14T15:27:29;95826.75;;;4.26;94.91
8049;BME280;20935;42.660;23.342;2023-02-14T15:30:23;95833.03;;;4.21;95.21